sensor_id;sensor_type;location;lat;lon;timestamp;P1;durP1;ratioP1;P2;durP2;ratioP2
63902;SDS011;50072;50.678;13.938;2024-03-07T00:00:20;19.38;;;8.88;;
63902;SDS011;50072;50.678;13.938;2024-03-07T00:03:07;18.75;;;8.13;;
63902;SDS011;50072;50.678;13.938;2024-03-07T00:05:38;20.02;;;8.82;;
63902;SDS011;50072;50.678;13.938;2024-03-07T00:08:05;18.95;;;8.30;;
63902;SDS011;50072;50.678;13.938;2024-03-07T00:10:32;19.02;;;8.15;;
63902;SDS011;50072;50.678;13.938;2024-03-07T00:13:02;20.73;;;8.55;;
63902;SDS011;50072;50.678;13.938;2024-03-07T00:15:28;16.00;;;7.43;;
63902;SDS011;50072;50.678;13.938;2024-03-07T00:17:57;18.85;;;8.70;;
63902;SDS011;50072;50.678;13.938;2024-03-07T00:20:23;20.42;;;7.57;;
63902;SDS011;50072;50.678;13.938;2024-03-07T00:22:49;21.38;;;8.02;;
63902;SDS011;50072;50.678;13.938;2024-03-07T00:25:15;19.25;;;8.00;;
63902;SDS011;50072;50.678;13.938;2024-03-07T00:27:45;19.05;;;8.52;;
63902;SDS011;50072;50.678;13.938;2024-03-07T00:30:12;21.98;;;8.52;;
63902;SDS011;50072;50.678;13.938;2024-03-07T00:32:43;19.42;;;8.63;;
63902;SDS011;50072;50.678;13.938;2024-03-07T00:35:16;24.58;;;9.15;;
63902;SDS011;50072;50.678;13.938;2024-03-07T00:37:43;21.93;;;10.10;;
63902;SDS011;50072;50.678;13.938;2024-03-07T00:40:11;22.08;;;8.65;;
63902;SDS011;50072;50.678;13.938;2024-03-07T00:42:36;22.13;;;9.07;;
63902;SDS011;50072;50.678;13.938;2024-03-07T00:47:40;19.52;;;9.20;;
63902;SDS011;50072;50.678;13.938;2024-03-07T00:50:06;22.00;;;9.75;;
63902;SDS011;50072;50.678;13.938;2024-03-07T00:52:33;21.50;;;10.38;;
63902;SDS011;50072;50.678;13.938;2024-03-07T00:55:00;21.75;;;9.57;;
63902;SDS011;50072;50.678;13.938;2024-03-07T00:57:26;21.35;;;8.93;;
63902;SDS011;50072;50.678;13.938;2024-03-07T00:59:52;21.63;;;9.20;;
63902;SDS011;50072;50.678;13.938;2024-03-07T01:02:17;22.02;;;10.07;;
63902;SDS011;50072;50.678;13.938;2024-03-07T01:04:45;21.92;;;9.52;;
63902;SDS011;50072;50.678;13.938;2024-03-07T01:09:45;24.38;;;9.32;;
63902;SDS011;50072;50.678;13.938;2024-03-07T01:12:11;21.67;;;9.32;;
63902;SDS011;50072;50.678;13.938;2024-03-07T01:14:38;21.77;;;10.07;;
63902;SDS011;50072;50.678;13.938;2024-03-07T01:17:05;19.98;;;9.07;;
63902;SDS011;50072;50.678;13.938;2024-03-07T01:19:33;21.50;;;9.45;;
63902;SDS011;50072;50.678;13.938;2024-03-07T01:22:00;20.17;;;9.02;;
63902;SDS011;50072;50.678;13.938;2024-03-07T01:24:28;20.55;;;9.93;;
63902;SDS011;50072;50.678;13.938;2024-03-07T01:26:59;18.77;;;8.23;;
63902;SDS011;50072;50.678;13.938;2024-03-07T01:31:53;21.25;;;8.98;;
63902;SDS011;50072;50.678;13.938;2024-03-07T01:34:19;18.92;;;8.88;;
63902;SDS011;50072;50.678;13.938;2024-03-07T01:36:45;20.42;;;9.20;;
63902;SDS011;50072;50.678;13.938;2024-03-07T01:39:11;20.25;;;9.05;;
63902;SDS011;50072;50.678;13.938;2024-03-07T01:41:38;15.43;;;8.38;;
63902;SDS011;50072;50.678;13.938;2024-03-07T01:44:06;20.15;;;9.50;;
63902;SDS011;50072;50.678;13.938;2024-03-07T01:46:34;18.00;;;8.75;;
63902;SDS011;50072;50.678;13.938;2024-03-07T01:49:08;19.35;;;8.88;;
63902;SDS011;50072;50.678;13.938;2024-03-07T01:51:35;19.67;;;8.70;;
63902;SDS011;50072;50.678;13.938;2024-03-07T01:54:03;16.98;;;8.48;;
63902;SDS011;50072;50.678;13.938;2024-03-07T01:56:31;17.20;;;8.48;;
63902;SDS011;50072;50.678;13.938;2024-03-07T01:58:57;17.92;;;8.82;;
63902;SDS011;50072;50.678;13.938;2024-03-07T02:01:27;21.15;;;8.73;;
63902;SDS011;50072;50.678;13.938;2024-03-07T02:06:32;20.75;;;8.82;;
63902;SDS011;50072;50.678;13.938;2024-03-07T02:09:00;19.58;;;8.07;;
63902;SDS011;50072;50.678;13.938;2024-03-07T02:11:35;19.23;;;9.02;;
63902;SDS011;50072;50.678;13.938;2024-03-07T02:14:07;18.23;;;8.35;;
63902;SDS011;50072;50.678;13.938;2024-03-07T02:16:38;19.70;;;9.23;;
63902;SDS011;50072;50.678;13.938;2024-03-07T02:19:14;23.08;;;9.70;;
63902;SDS011;50072;50.678;13.938;2024-03-07T02:24:17;21.40;;;9.77;;
63902;SDS011;50072;50.678;13.938;2024-03-07T02:26:45;23.08;;;10.02;;
63902;SDS011;50072;50.678;13.938;2024-03-07T02:29:15;21.60;;;10.00;;
63902;SDS011;50072;50.678;13.938;2024-03-07T02:31:47;24.63;;;11.23;;
63902;SDS011;50072;50.678;13.938;2024-03-07T02:34:15;24.83;;;10.75;;
63902;SDS011;50072;50.678;13.938;2024-03-07T02:36:42;25.55;;;10.18;;
63902;SDS011;50072;50.678;13.938;2024-03-07T02:39:08;21.15;;;10.27;;
63902;SDS011;50072;50.678;13.938;2024-03-07T02:41:36;22.20;;;10.05;;
63902;SDS011;50072;50.678;13.938;2024-03-07T02:44:02;21.65;;;10.10;;
63902;SDS011;50072;50.678;13.938;2024-03-07T02:46:29;22.55;;;9.90;;
63902;SDS011;50072;50.678;13.938;2024-03-07T02:48:56;19.58;;;9.63;;
63902;SDS011;50072;50.678;13.938;2024-03-07T02:51:24;24.17;;;11.40;;
63902;SDS011;50072;50.678;13.938;2024-03-07T02:53:50;28.10;;;10.93;;
63902;SDS011;50072;50.678;13.938;2024-03-07T02:56:15;24.27;;;10.82;;
63902;SDS011;50072;50.678;13.938;2024-03-07T02:58:43;21.63;;;9.93;;
63902;SDS011;50072;50.678;13.938;2024-03-07T03:01:15;25.02;;;10.30;;
63902;SDS011;50072;50.678;13.938;2024-03-07T03:03:47;22.75;;;10.75;;
63902;SDS011;50072;50.678;13.938;2024-03-07T03:06:14;26.40;;;10.95;;
63902;SDS011;50072;50.678;13.938;2024-03-07T03:08:40;24.00;;;10.65;;
63902;SDS011;50072;50.678;13.938;2024-03-07T03:11:08;24.63;;;10.20;;
63902;SDS011;50072;50.678;13.938;2024-03-07T03:13:40;24.40;;;10.60;;
63902;SDS011;50072;50.678;13.938;2024-03-07T03:16:08;25.40;;;10.50;;
63902;SDS011;50072;50.678;13.938;2024-03-07T03:18:37;24.40;;;11.50;;
63902;SDS011;50072;50.678;13.938;2024-03-07T03:21:05;24.52;;;10.93;;
63902;SDS011;50072;50.678;13.938;2024-03-07T03:23:31;28.58;;;11.13;;
63902;SDS011;50072;50.678;13.938;2024-03-07T03:25:57;29.98;;;11.55;;
63902;SDS011;50072;50.678;13.938;2024-03-07T03:28:23;25.98;;;11.00;;
63902;SDS011;50072;50.678;13.938;2024-03-07T03:30:55;24.25;;;10.43;;
63902;SDS011;50072;50.678;13.938;2024-03-07T03:33:32;25.75;;;11.45;;
63902;SDS011;50072;50.678;13.938;2024-03-07T03:36:00;28.30;;;12.48;;
63902;SDS011;50072;50.678;13.938;2024-03-07T03:38:38;24.77;;;11.02;;
63902;SDS011;50072;50.678;13.938;2024-03-07T03:41:16;26.63;;;11.13;;
63902;SDS011;50072;50.678;13.938;2024-03-07T03:43:48;32.95;;;11.48;;
63902;SDS011;50072;50.678;13.938;2024-03-07T03:46:15;27.90;;;10.70;;
63902;SDS011;50072;50.678;13.938;2024-03-07T03:48:47;26.05;;;11.73;;
63902;SDS011;50072;50.678;13.938;2024-03-07T03:51:15;23.80;;;10.90;;
63902;SDS011;50072;50.678;13.938;2024-03-07T03:53:45;26.20;;;10.98;;
63902;SDS011;50072;50.678;13.938;2024-03-07T03:56:12;24.50;;;11.60;;
63902;SDS011;50072;50.678;13.938;2024-03-07T03:58:44;26.55;;;11.45;;
63902;SDS011;50072;50.678;13.938;2024-03-07T04:01:10;24.80;;;11.60;;
63902;SDS011;50072;50.678;13.938;2024-03-07T04:03:38;27.55;;;11.85;;
63902;SDS011;50072;50.678;13.938;2024-03-07T04:06:05;26.48;;;11.75;;
63902;SDS011;50072;50.678;13.938;2024-03-07T04:08:32;24.55;;;11.20;;
63902;SDS011;50072;50.678;13.938;2024-03-07T04:11:15;27.58;;;12.18;;
63902;SDS011;50072;50.678;13.938;2024-03-07T04:13:45;26.60;;;11.30;;
63902;SDS011;50072;50.678;13.938;2024-03-07T04:16:16;28.67;;;11.95;;
63902;SDS011;50072;50.678;13.938;2024-03-07T04:18:45;27.33;;;12.10;;
63902;SDS011;50072;50.678;13.938;2024-03-07T04:23:45;30.52;;;12.27;;
63902;SDS011;50072;50.678;13.938;2024-03-07T04:26:12;31.67;;;12.23;;
63902;SDS011;50072;50.678;13.938;2024-03-07T04:28:39;28.30;;;12.65;;
63902;SDS011;50072;50.678;13.938;2024-03-07T04:33:40;31.33;;;12.82;;
63902;SDS011;50072;50.678;13.938;2024-03-07T04:36:08;33.70;;;13.02;;
63902;SDS011;50072;50.678;13.938;2024-03-07T04:38:40;30.67;;;13.32;;
63902;SDS011;50072;50.678;13.938;2024-03-07T04:41:15;30.80;;;13.25;;
63902;SDS011;50072;50.678;13.938;2024-03-07T04:43:45;28.98;;;13.05;;
63902;SDS011;50072;50.678;13.938;2024-03-07T04:48:45;31.35;;;13.07;;
63902;SDS011;50072;50.678;13.938;2024-03-07T04:53:43;29.75;;;13.82;;
63902;SDS011;50072;50.678;13.938;2024-03-07T04:58:45;31.85;;;13.68;;
63902;SDS011;50072;50.678;13.938;2024-03-07T05:01:12;33.57;;;14.17;;
63902;SDS011;50072;50.678;13.938;2024-03-07T05:03:38;36.28;;;14.65;;
63902;SDS011;50072;50.678;13.938;2024-03-07T05:06:04;34.55;;;14.40;;
63902;SDS011;50072;50.678;13.938;2024-03-07T05:08:31;33.78;;;14.02;;
63902;SDS011;50072;50.678;13.938;2024-03-07T05:10:56;32.38;;;14.40;;
63902;SDS011;50072;50.678;13.938;2024-03-07T05:13:23;34.92;;;14.77;;
63902;SDS011;50072;50.678;13.938;2024-03-07T05:15:50;36.42;;;13.70;;
63902;SDS011;50072;50.678;13.938;2024-03-07T05:18:17;35.17;;;13.82;;
63902;SDS011;50072;50.678;13.938;2024-03-07T05:20:44;31.88;;;13.77;;
63902;SDS011;50072;50.678;13.938;2024-03-07T05:23:10;33.50;;;13.93;;
63902;SDS011;50072;50.678;13.938;2024-03-07T05:25:36;32.25;;;13.02;;
63902;SDS011;50072;50.678;13.938;2024-03-07T05:28:04;32.75;;;12.77;;
63902;SDS011;50072;50.678;13.938;2024-03-07T05:30:30;35.22;;;14.43;;
63902;SDS011;50072;50.678;13.938;2024-03-07T05:32:59;30.23;;;13.07;;
63902;SDS011;50072;50.678;13.938;2024-03-07T05:35:29;30.10;;;13.50;;
63902;SDS011;50072;50.678;13.938;2024-03-07T05:37:55;29.88;;;13.95;;
63902;SDS011;50072;50.678;13.938;2024-03-07T05:40:23;33.10;;;13.50;;
63902;SDS011;50072;50.678;13.938;2024-03-07T05:42:49;29.20;;;13.35;;
63902;SDS011;50072;50.678;13.938;2024-03-07T05:45:15;29.55;;;12.98;;
63902;SDS011;50072;50.678;13.938;2024-03-07T05:47:43;32.55;;;13.45;;
63902;SDS011;50072;50.678;13.938;2024-03-07T05:50:10;32.53;;;13.43;;
63902;SDS011;50072;50.678;13.938;2024-03-07T05:52:36;29.55;;;12.82;;
63902;SDS011;50072;50.678;13.938;2024-03-07T05:55:03;34.33;;;13.82;;
63902;SDS011;50072;50.678;13.938;2024-03-07T05:57:32;31.27;;;12.77;;
63902;SDS011;50072;50.678;13.938;2024-03-07T05:59:58;30.23;;;12.82;;
63902;SDS011;50072;50.678;13.938;2024-03-07T06:02:26;30.60;;;12.85;;
63902;SDS011;50072;50.678;13.938;2024-03-07T06:04:53;30.75;;;12.38;;
63902;SDS011;50072;50.678;13.938;2024-03-07T06:07:18;34.67;;;13.63;;
63902;SDS011;50072;50.678;13.938;2024-03-07T06:09:45;28.88;;;13.05;;
63902;SDS011;50072;50.678;13.938;2024-03-07T06:12:11;32.05;;;13.02;;
63902;SDS011;50072;50.678;13.938;2024-03-07T06:14:37;32.95;;;12.65;;
63902;SDS011;50072;50.678;13.938;2024-03-07T06:17:04;30.50;;;12.65;;
63902;SDS011;50072;50.678;13.938;2024-03-07T06:19:31;33.17;;;13.05;;
63902;SDS011;50072;50.678;13.938;2024-03-07T06:21:58;31.13;;;12.88;;
63902;SDS011;50072;50.678;13.938;2024-03-07T06:24:24;28.20;;;12.93;;
63902;SDS011;50072;50.678;13.938;2024-03-07T06:26:54;31.15;;;12.25;;
63902;SDS011;50072;50.678;13.938;2024-03-07T06:29:28;28.90;;;12.23;;
63902;SDS011;50072;50.678;13.938;2024-03-07T06:31:55;29.48;;;12.40;;
63902;SDS011;50072;50.678;13.938;2024-03-07T06:34:22;29.73;;;12.70;;
63902;SDS011;50072;50.678;13.938;2024-03-07T06:36:48;32.17;;;12.65;;
63902;SDS011;50072;50.678;13.938;2024-03-07T06:39:15;33.40;;;13.82;;
63902;SDS011;50072;50.678;13.938;2024-03-07T06:41:43;35.55;;;13.75;;
63902;SDS011;50072;50.678;13.938;2024-03-07T06:44:10;28.55;;;13.40;;
63902;SDS011;50072;50.678;13.938;2024-03-07T06:46:38;31.08;;;12.77;;
63902;SDS011;50072;50.678;13.938;2024-03-07T06:49:05;37.15;;;13.35;;
63902;SDS011;50072;50.678;13.938;2024-03-07T06:51:35;32.75;;;12.85;;
63902;SDS011;50072;50.678;13.938;2024-03-07T06:54:02;32.42;;;13.70;;
63902;SDS011;50072;50.678;13.938;2024-03-07T06:56:28;34.80;;;13.45;;
63902;SDS011;50072;50.678;13.938;2024-03-07T06:58:54;33.75;;;13.18;;
63902;SDS011;50072;50.678;13.938;2024-03-07T07:01:23;32.25;;;13.40;;
63902;SDS011;50072;50.678;13.938;2024-03-07T07:03:49;33.42;;;13.32;;
63902;SDS011;50072;50.678;13.938;2024-03-07T07:06:16;32.10;;;13.80;;
63902;SDS011;50072;50.678;13.938;2024-03-07T07:11:15;30.25;;;13.00;;
63902;SDS011;50072;50.678;13.938;2024-03-07T07:13:45;30.83;;;12.90;;
63902;SDS011;50072;50.678;13.938;2024-03-07T07:16:13;28.13;;;12.85;;
63902;SDS011;50072;50.678;13.938;2024-03-07T07:18:45;25.50;;;12.38;;
63902;SDS011;50072;50.678;13.938;2024-03-07T07:23:46;31.70;;;13.30;;
63902;SDS011;50072;50.678;13.938;2024-03-07T07:26:16;32.97;;;13.75;;
63902;SDS011;50072;50.678;13.938;2024-03-07T07:31:18;26.83;;;12.07;;
63902;SDS011;50072;50.678;13.938;2024-03-07T07:33:45;26.70;;;11.32;;
63902;SDS011;50072;50.678;13.938;2024-03-07T07:36:18;30.42;;;12.43;;
63902;SDS011;50072;50.678;13.938;2024-03-07T07:38:45;31.75;;;13.18;;
63902;SDS011;50072;50.678;13.938;2024-03-07T07:41:17;26.38;;;11.30;;
63902;SDS011;50072;50.678;13.938;2024-03-07T07:43:45;26.53;;;11.13;;
63902;SDS011;50072;50.678;13.938;2024-03-07T07:48:45;22.85;;;10.82;;
63902;SDS011;50072;50.678;13.938;2024-03-07T07:51:17;22.75;;;10.65;;
63902;SDS011;50072;50.678;13.938;2024-03-07T07:53:44;27.52;;;11.20;;
63902;SDS011;50072;50.678;13.938;2024-03-07T07:56:10;30.10;;;11.13;;
63902;SDS011;50072;50.678;13.938;2024-03-07T08:01:18;26.92;;;11.00;;
63902;SDS011;50072;50.678;13.938;2024-03-07T08:03:45;31.83;;;14.75;;
63902;SDS011;50072;50.678;13.938;2024-03-07T08:06:17;26.98;;;12.32;;
63902;SDS011;50072;50.678;13.938;2024-03-07T08:08:45;25.50;;;12.23;;
63902;SDS011;50072;50.678;13.938;2024-03-07T08:11:17;32.03;;;15.70;;
63902;SDS011;50072;50.678;13.938;2024-03-07T08:13:48;27.70;;;14.30;;
63902;SDS011;50072;50.678;13.938;2024-03-07T08:18:45;26.10;;;12.38;;
63902;SDS011;50072;50.678;13.938;2024-03-07T08:21:15;25.52;;;11.90;;
63902;SDS011;50072;50.678;13.938;2024-03-07T08:26:15;25.98;;;11.35;;
63902;SDS011;50072;50.678;13.938;2024-03-07T08:28:42;25.02;;;10.88;;
63902;SDS011;50072;50.678;13.938;2024-03-07T08:31:08;25.63;;;10.82;;
63902;SDS011;50072;50.678;13.938;2024-03-07T08:33:40;25.10;;;11.45;;
63902;SDS011;50072;50.678;13.938;2024-03-07T08:36:08;22.17;;;10.40;;
63902;SDS011;50072;50.678;13.938;2024-03-07T08:38:35;27.02;;;10.75;;
63902;SDS011;50072;50.678;13.938;2024-03-07T08:41:08;24.02;;;10.20;;
63902;SDS011;50072;50.678;13.938;2024-03-07T08:43:38;23.37;;;9.93;;
63902;SDS011;50072;50.678;13.938;2024-03-07T08:46:04;21.33;;;10.27;;
63902;SDS011;50072;50.678;13.938;2024-03-07T08:48:39;23.45;;;10.27;;
63902;SDS011;50072;50.678;13.938;2024-03-07T08:51:15;24.92;;;10.45;;
63902;SDS011;50072;50.678;13.938;2024-03-07T08:53:45;21.48;;;9.73;;
63902;SDS011;50072;50.678;13.938;2024-03-07T08:56:14;19.75;;;9.35;;
63902;SDS011;50072;50.678;13.938;2024-03-07T08:58:46;23.25;;;10.60;;
63902;SDS011;50072;50.678;13.938;2024-03-07T09:01:14;22.35;;;9.60;;
63902;SDS011;50072;50.678;13.938;2024-03-07T09:03:45;19.83;;;9.27;;
63902;SDS011;50072;50.678;13.938;2024-03-07T09:06:15;24.23;;;10.30;;
63902;SDS011;50072;50.678;13.938;2024-03-07T09:08:43;19.05;;;8.75;;
63902;SDS011;50072;50.678;13.938;2024-03-07T09:11:09;21.42;;;9.55;;
63902;SDS011;50072;50.678;13.938;2024-03-07T09:13:37;23.17;;;9.43;;
63902;SDS011;50072;50.678;13.938;2024-03-07T09:16:03;29.00;;;13.77;;
63902;SDS011;50072;50.678;13.938;2024-03-07T09:18:38;47.33;;;19.00;;
63902;SDS011;50072;50.678;13.938;2024-03-07T09:21:05;24.75;;;9.75;;
63902;SDS011;50072;50.678;13.938;2024-03-07T09:23:32;20.50;;;9.27;;
63902;SDS011;50072;50.678;13.938;2024-03-07T09:25:58;21.40;;;10.05;;
63902;SDS011;50072;50.678;13.938;2024-03-07T09:28:25;23.85;;;10.52;;
63902;SDS011;50072;50.678;13.938;2024-03-07T09:30:52;20.42;;;9.27;;
63902;SDS011;50072;50.678;13.938;2024-03-07T09:33:17;21.38;;;10.30;;
63902;SDS011;50072;50.678;13.938;2024-03-07T09:35:45;19.58;;;9.82;;
63902;SDS011;50072;50.678;13.938;2024-03-07T09:38:11;19.92;;;8.93;;
63902;SDS011;50072;50.678;13.938;2024-03-07T09:40:37;22.90;;;10.75;;
63902;SDS011;50072;50.678;13.938;2024-03-07T09:43:03;21.60;;;10.73;;
63902;SDS011;50072;50.678;13.938;2024-03-07T09:45:33;19.25;;;9.55;;
63902;SDS011;50072;50.678;13.938;2024-03-07T09:48:00;19.40;;;8.70;;
63902;SDS011;50072;50.678;13.938;2024-03-07T09:50:30;19.73;;;9.38;;
63902;SDS011;50072;50.678;13.938;2024-03-07T09:52:58;18.25;;;9.48;;
63902;SDS011;50072;50.678;13.938;2024-03-07T09:55:26;20.30;;;9.30;;
63902;SDS011;50072;50.678;13.938;2024-03-07T09:58:07;19.10;;;8.88;;
63902;SDS011;50072;50.678;13.938;2024-03-07T10:00:38;17.45;;;8.07;;
63902;SDS011;50072;50.678;13.938;2024-03-07T10:03:14;19.35;;;8.93;;
63902;SDS011;50072;50.678;13.938;2024-03-07T10:08:16;21.13;;;8.80;;
63902;SDS011;50072;50.678;13.938;2024-03-07T10:10:47;16.63;;;9.13;;
63902;SDS011;50072;50.678;13.938;2024-03-07T10:13:13;19.50;;;9.30;;
63902;SDS011;50072;50.678;13.938;2024-03-07T10:15:45;17.55;;;8.80;;
63902;SDS011;50072;50.678;13.938;2024-03-07T10:18:18;18.90;;;9.55;;
63902;SDS011;50072;50.678;13.938;2024-03-07T10:23:39;19.92;;;9.48;;
63902;SDS011;50072;50.678;13.938;2024-03-07T10:28:38;21.30;;;8.93;;
63902;SDS011;50072;50.678;13.938;2024-03-07T10:31:10;18.55;;;9.63;;
63902;SDS011;50072;50.678;13.938;2024-03-07T10:33:45;18.25;;;9.55;;
63902;SDS011;50072;50.678;13.938;2024-03-07T10:38:47;22.40;;;9.57;;
63902;SDS011;50072;50.678;13.938;2024-03-07T10:41:15;20.73;;;10.10;;
63902;SDS011;50072;50.678;13.938;2024-03-07T10:43:45;21.23;;;10.25;;
63902;SDS011;50072;50.678;13.938;2024-03-07T10:49:08;20.63;;;10.95;;
63902;SDS011;50072;50.678;13.938;2024-03-07T10:51:46;21.45;;;11.00;;
63902;SDS011;50072;50.678;13.938;2024-03-07T10:57:20;24.92;;;11.48;;
63902;SDS011;50072;50.678;13.938;2024-03-07T11:03:04;21.73;;;11.00;;
63902;SDS011;50072;50.678;13.938;2024-03-07T11:05:32;21.50;;;9.88;;
63902;SDS011;50072;50.678;13.938;2024-03-07T11:08:06;22.98;;;10.63;;
63902;SDS011;50072;50.678;13.938;2024-03-07T11:10:39;20.65;;;10.55;;
63902;SDS011;50072;50.678;13.938;2024-03-07T11:13:12;21.45;;;11.27;;
63902;SDS011;50072;50.678;13.938;2024-03-07T11:15:41;27.58;;;12.57;;
63902;SDS011;50072;50.678;13.938;2024-03-07T11:18:12;22.00;;;10.57;;
63902;SDS011;50072;50.678;13.938;2024-03-07T11:20:39;23.42;;;11.40;;
63902;SDS011;50072;50.678;13.938;2024-03-07T11:23:24;23.13;;;10.98;;
63902;SDS011;50072;50.678;13.938;2024-03-07T11:26:09;22.90;;;11.27;;
63902;SDS011;50072;50.678;13.938;2024-03-07T11:28:38;24.60;;;11.77;;
63902;SDS011;50072;50.678;13.938;2024-03-07T11:31:29;31.67;;;13.98;;
63902;SDS011;50072;50.678;13.938;2024-03-07T11:36:46;25.70;;;12.40;;
63902;SDS011;50072;50.678;13.938;2024-03-07T11:42:19;21.58;;;10.63;;
63902;SDS011;50072;50.678;13.938;2024-03-07T11:44:52;23.88;;;11.45;;
63902;SDS011;50072;50.678;13.938;2024-03-07T11:47:38;24.10;;;12.20;;
63902;SDS011;50072;50.678;13.938;2024-03-07T11:50:16;25.05;;;12.18;;
63902;SDS011;50072;50.678;13.938;2024-03-07T11:52:45;22.70;;;11.88;;
63902;SDS011;50072;50.678;13.938;2024-03-07T11:55:12;22.33;;;11.05;;
63902;SDS011;50072;50.678;13.938;2024-03-07T11:57:38;25.00;;;12.40;;
63902;SDS011;50072;50.678;13.938;2024-03-07T12:00:04;23.58;;;11.35;;
63902;SDS011;50072;50.678;13.938;2024-03-07T12:02:38;23.35;;;11.73;;
63902;SDS011;50072;50.678;13.938;2024-03-07T12:05:05;23.65;;;11.88;;
63902;SDS011;50072;50.678;13.938;2024-03-07T12:07:33;25.60;;;11.65;;
63902;SDS011;50072;50.678;13.938;2024-03-07T12:10:01;25.67;;;11.93;;
63902;SDS011;50072;50.678;13.938;2024-03-07T12:12:30;21.80;;;10.95;;
63902;SDS011;50072;50.678;13.938;2024-03-07T12:14:59;23.80;;;11.98;;
63902;SDS011;50072;50.678;13.938;2024-03-07T12:17:25;28.08;;;12.10;;
63902;SDS011;50072;50.678;13.938;2024-03-07T12:19:52;22.52;;;11.98;;
63902;SDS011;50072;50.678;13.938;2024-03-07T12:22:20;23.88;;;10.93;;
63902;SDS011;50072;50.678;13.938;2024-03-07T12:25:00;24.33;;;12.50;;
63902;SDS011;50072;50.678;13.938;2024-03-07T12:27:33;22.85;;;12.07;;
63902;SDS011;50072;50.678;13.938;2024-03-07T12:29:59;26.38;;;12.23;;
63902;SDS011;50072;50.678;13.938;2024-03-07T12:32:34;26.55;;;13.15;;
63902;SDS011;50072;50.678;13.938;2024-03-07T12:35:04;23.77;;;12.18;;
63902;SDS011;50072;50.678;13.938;2024-03-07T12:37:34;26.33;;;12.45;;
63902;SDS011;50072;50.678;13.938;2024-03-07T12:40:10;35.90;;;15.13;;
63902;SDS011;50072;50.678;13.938;2024-03-07T12:42:45;28.58;;;13.00;;
63902;SDS011;50072;50.678;13.938;2024-03-07T12:45:17;28.63;;;13.23;;
63902;SDS011;50072;50.678;13.938;2024-03-07T12:47:48;22.20;;;12.20;;
63902;SDS011;50072;50.678;13.938;2024-03-07T12:50:20;28.92;;;12.25;;
63902;SDS011;50072;50.678;13.938;2024-03-07T12:52:47;25.60;;;12.68;;
63902;SDS011;50072;50.678;13.938;2024-03-07T12:55:16;26.67;;;12.95;;
63902;SDS011;50072;50.678;13.938;2024-03-07T12:57:49;22.88;;;12.00;;
63902;SDS011;50072;50.678;13.938;2024-03-07T13:00:16;24.67;;;11.65;;
63902;SDS011;50072;50.678;13.938;2024-03-07T13:02:46;24.75;;;11.68;;
63902;SDS011;50072;50.678;13.938;2024-03-07T13:05:14;24.88;;;11.63;;
63902;SDS011;50072;50.678;13.938;2024-03-07T13:07:48;23.00;;;11.60;;
63902;SDS011;50072;50.678;13.938;2024-03-07T13:10:15;25.17;;;12.55;;
63902;SDS011;50072;50.678;13.938;2024-03-07T13:12:42;24.13;;;12.27;;
63902;SDS011;50072;50.678;13.938;2024-03-07T13:15:12;25.60;;;13.25;;
63902;SDS011;50072;50.678;13.938;2024-03-07T13:17:38;25.92;;;13.43;;
63902;SDS011;50072;50.678;13.938;2024-03-07T13:20:06;33.72;;;15.15;;
63902;SDS011;50072;50.678;13.938;2024-03-07T13:22:38;72.30;;;25.42;;
63902;SDS011;50072;50.678;13.938;2024-03-07T13:25:10;39.13;;;15.93;;
63902;SDS011;50072;50.678;13.938;2024-03-07T13:28:04;33.22;;;14.18;;
63902;SDS011;50072;50.678;13.938;2024-03-07T13:30:33;36.15;;;16.10;;
63902;SDS011;50072;50.678;13.938;2024-03-07T13:33:01;36.03;;;17.58;;
63902;SDS011;50072;50.678;13.938;2024-03-07T13:35:29;33.33;;;15.55;;
63902;SDS011;50072;50.678;13.938;2024-03-07T13:37:55;27.35;;;12.90;;
63902;SDS011;50072;50.678;13.938;2024-03-07T13:40:23;25.63;;;12.25;;
63902;SDS011;50072;50.678;13.938;2024-03-07T13:42:52;35.63;;;16.98;;
63902;SDS011;50072;50.678;13.938;2024-03-07T13:45:30;29.27;;;14.48;;
63902;SDS011;50072;50.678;13.938;2024-03-07T13:47:58;29.10;;;14.38;;
63902;SDS011;50072;50.678;13.938;2024-03-07T13:50:26;28.88;;;15.15;;
63902;SDS011;50072;50.678;13.938;2024-03-07T13:52:56;23.75;;;13.18;;
63902;SDS011;50072;50.678;13.938;2024-03-07T14:12:59;29.30;;;13.10;;
63902;SDS011;50072;50.678;13.938;2024-03-07T14:16:00;25.73;;;12.23;;
63902;SDS011;50072;50.678;13.938;2024-03-07T14:32:56;30.02;;;13.55;;
63902;SDS011;50072;50.678;13.938;2024-03-07T14:41:05;23.70;;;11.35;;
63902;SDS011;50072;50.678;13.938;2024-03-07T14:43:34;18.48;;;9.95;;
63902;SDS011;50072;50.678;13.938;2024-03-07T14:46:00;23.65;;;12.20;;
63902;SDS011;50072;50.678;13.938;2024-03-07T14:48:27;23.33;;;12.38;;
63902;SDS011;50072;50.678;13.938;2024-03-07T14:50:54;20.25;;;9.80;;
63902;SDS011;50072;50.678;13.938;2024-03-07T14:53:20;24.65;;;12.25;;
63902;SDS011;50072;50.678;13.938;2024-03-07T14:55:47;25.55;;;12.73;;
63902;SDS011;50072;50.678;13.938;2024-03-07T14:58:13;31.88;;;14.80;;
63902;SDS011;50072;50.678;13.938;2024-03-07T15:00:42;38.63;;;17.00;;
63902;SDS011;50072;50.678;13.938;2024-03-07T15:03:14;30.23;;;12.65;;
63902;SDS011;50072;50.678;13.938;2024-03-07T15:05:43;35.35;;;15.07;;
63902;SDS011;50072;50.678;13.938;2024-03-07T15:08:13;48.72;;;20.48;;
63902;SDS011;50072;50.678;13.938;2024-03-07T15:10:48;33.22;;;15.30;;
63902;SDS011;50072;50.678;13.938;2024-03-07T15:13:20;31.58;;;13.95;;
63902;SDS011;50072;50.678;13.938;2024-03-07T15:15:48;25.98;;;12.02;;
63902;SDS011;50072;50.678;13.938;2024-03-07T15:18:14;22.88;;;10.48;;
63902;SDS011;50072;50.678;13.938;2024-03-07T15:20:40;24.75;;;11.80;;
63902;SDS011;50072;50.678;13.938;2024-03-07T15:23:07;21.88;;;10.85;;
63902;SDS011;50072;50.678;13.938;2024-03-07T15:25:34;35.20;;;15.57;;
63902;SDS011;50072;50.678;13.938;2024-03-07T15:28:02;24.58;;;11.77;;
63902;SDS011;50072;50.678;13.938;2024-03-07T15:30:29;28.17;;;13.23;;
63902;SDS011;50072;50.678;13.938;2024-03-07T15:33:01;19.27;;;9.83;;
63902;SDS011;50072;50.678;13.938;2024-03-07T15:35:30;23.48;;;10.05;;
63902;SDS011;50072;50.678;13.938;2024-03-07T15:37:59;28.33;;;13.43;;
63902;SDS011;50072;50.678;13.938;2024-03-07T15:40:27;28.10;;;12.75;;
63902;SDS011;50072;50.678;13.938;2024-03-07T15:42:56;23.92;;;11.20;;
63902;SDS011;50072;50.678;13.938;2024-03-07T15:45:25;23.73;;;10.77;;
63902;SDS011;50072;50.678;13.938;2024-03-07T15:47:52;23.27;;;11.25;;
63902;SDS011;50072;50.678;13.938;2024-03-07T15:50:20;20.08;;;10.38;;
63902;SDS011;50072;50.678;13.938;2024-03-07T15:52:49;25.70;;;11.80;;
63902;SDS011;50072;50.678;13.938;2024-03-07T15:55:20;26.65;;;12.02;;
63902;SDS011;50072;50.678;13.938;2024-03-07T15:57:54;24.52;;;11.45;;
63902;SDS011;50072;50.678;13.938;2024-03-07T16:00:22;30.60;;;14.00;;
63902;SDS011;50072;50.678;13.938;2024-03-07T16:02:51;27.67;;;12.50;;
63902;SDS011;50072;50.678;13.938;2024-03-07T16:05:30;22.48;;;10.27;;
63902;SDS011;50072;50.678;13.938;2024-03-07T16:07:58;28.92;;;13.40;;